Terminal Aerodrome Forecast
Issued by NWS Corpus Christi, TX

Home | Current Version | Previous Version | Text Only | Print | Product List | Glossary On
Versions: 1 2 3 4 5 6 7 8 9 10 11 12 13 14 15 16 17 18 19 20 21
000
FTUS44 KCRP 250531
TAFVCT
TAF
KVCT 250531Z 2506/2606 14003KT 6SM BR VCSH OVC015
      TEMPO 2506/2510 3SM TSRA BR OVC010CB
     FM251200 VRB03KT 5SM -SHRA BR OVC020
     FM251500 04010KT P6SM -SHRA OVC025
     FM260100 01012KT P6SM OVC010=

USA.gov is the U.S. government's official web portal to all federal, state and local government web resources and services.